sensor_id;sensor_type;location;lat;lon;timestamp;P1;durP1;ratioP1;P2;durP2;ratioP2
79493;SDS011;68951;53.130;18.104;2023-07-02T00:00:05;8.20;;;3.60;;
79493;SDS011;68951;53.130;18.104;2023-07-02T00:02:37;7.10;;;3.70;;
79493;SDS011;68951;53.130;18.104;2023-07-02T00:05:05;6.80;;;4.00;;
79493;SDS011;68951;53.130;18.104;2023-07-02T00:07:33;6.20;;;3.40;;
79493;SDS011;68951;53.130;18.104;2023-07-02T00:10:00;7.20;;;3.60;;
79493;SDS011;68951;53.130;18.104;2023-07-02T00:12:27;8.90;;;3.70;;
79493;SDS011;68951;53.130;18.104;2023-07-02T00:14:54;7.70;;;3.10;;
79493;SDS011;68951;53.130;18.104;2023-07-02T00:17:21;5.90;;;3.80;;
79493;SDS011;68951;53.130;18.104;2023-07-02T00:19:48;7.40;;;4.20;;
79493;SDS011;68951;53.130;18.104;2023-07-02T00:22:17;6.20;;;3.40;;
79493;SDS011;68951;53.130;18.104;2023-07-02T00:24:44;8.50;;;3.70;;
79493;SDS011;68951;53.130;18.104;2023-07-02T00:27:11;7.60;;;3.30;;
79493;SDS011;68951;53.130;18.104;2023-07-02T00:29:38;5.50;;;3.10;;
79493;SDS011;68951;53.130;18.104;2023-07-02T00:32:05;7.70;;;4.00;;
79493;SDS011;68951;53.130;18.104;2023-07-02T00:34:32;7.00;;;4.10;;
79493;SDS011;68951;53.130;18.104;2023-07-02T00:36:59;5.50;;;3.40;;
79493;SDS011;68951;53.130;18.104;2023-07-02T00:39:25;6.10;;;3.00;;
79493;SDS011;68951;53.130;18.104;2023-07-02T00:41:52;7.30;;;4.00;;
79493;SDS011;68951;53.130;18.104;2023-07-02T00:44:19;8.80;;;3.60;;
79493;SDS011;68951;53.130;18.104;2023-07-02T00:46:46;7.30;;;4.20;;
79493;SDS011;68951;53.130;18.104;2023-07-02T00:49:13;6.80;;;3.60;;
79493;SDS011;68951;53.130;18.104;2023-07-02T00:51:40;7.70;;;4.00;;
79493;SDS011;68951;53.130;18.104;2023-07-02T00:54:07;9.10;;;3.80;;
79493;SDS011;68951;53.130;18.104;2023-07-02T00:56:34;6.20;;;4.00;;
79493;SDS011;68951;53.130;18.104;2023-07-02T00:59:01;6.80;;;4.00;;
79493;SDS011;68951;53.130;18.104;2023-07-02T01:01:28;5.50;;;2.60;;
79493;SDS011;68951;53.130;18.104;2023-07-02T01:06:30;7.00;;;3.30;;
79493;SDS011;68951;53.130;18.104;2023-07-02T01:09:05;5.20;;;1.90;;
79493;SDS011;68951;53.130;18.104;2023-07-02T01:11:35;6.50;;;3.40;;
79493;SDS011;68951;53.130;18.104;2023-07-02T01:14:11;6.00;;;3.30;;
79493;SDS011;68951;53.130;18.104;2023-07-02T01:16:42;7.00;;;2.90;;
79493;SDS011;68951;53.130;18.104;2023-07-02T01:19:22;7.00;;;3.10;;
79493;SDS011;68951;53.130;18.104;2023-07-02T01:22:09;7.50;;;3.80;;
79493;SDS011;68951;53.130;18.104;2023-07-02T01:24:39;5.70;;;3.00;;
79493;SDS011;68951;53.130;18.104;2023-07-02T01:27:06;6.50;;;3.10;;
79493;SDS011;68951;53.130;18.104;2023-07-02T01:29:34;6.80;;;2.90;;
79493;SDS011;68951;53.130;18.104;2023-07-02T01:32:03;6.40;;;3.10;;
79493;SDS011;68951;53.130;18.104;2023-07-02T01:34:31;6.00;;;3.10;;
79493;SDS011;68951;53.130;18.104;2023-07-02T01:36:58;5.90;;;3.30;;
79493;SDS011;68951;53.130;18.104;2023-07-02T01:39:24;6.50;;;2.80;;
79493;SDS011;68951;53.130;18.104;2023-07-02T01:41:53;6.00;;;3.40;;
79493;SDS011;68951;53.130;18.104;2023-07-02T01:44:21;6.00;;;3.20;;
79493;SDS011;68951;53.130;18.104;2023-07-02T01:46:48;5.00;;;2.80;;
79493;SDS011;68951;53.130;18.104;2023-07-02T01:49:19;5.70;;;3.40;;
79493;SDS011;68951;53.130;18.104;2023-07-02T01:51:53;6.70;;;3.30;;
79493;SDS011;68951;53.130;18.104;2023-07-02T01:54:21;8.30;;;3.20;;
79493;SDS011;68951;53.130;18.104;2023-07-02T01:56:49;5.20;;;2.40;;
79493;SDS011;68951;53.130;18.104;2023-07-02T01:59:16;5.50;;;2.40;;
79493;SDS011;68951;53.130;18.104;2023-07-02T02:01:43;7.90;;;3.40;;
79493;SDS011;68951;53.130;18.104;2023-07-02T02:04:10;4.70;;;1.70;;
79493;SDS011;68951;53.130;18.104;2023-07-02T02:06:38;6.40;;;2.80;;
79493;SDS011;68951;53.130;18.104;2023-07-02T02:09:06;5.70;;;2.80;;
79493;SDS011;68951;53.130;18.104;2023-07-02T02:11:38;5.90;;;3.40;;
79493;SDS011;68951;53.130;18.104;2023-07-02T02:14:06;5.80;;;3.40;;
79493;SDS011;68951;53.130;18.104;2023-07-02T02:16:33;6.40;;;3.70;;
79493;SDS011;68951;53.130;18.104;2023-07-02T02:19:00;6.80;;;2.50;;
79493;SDS011;68951;53.130;18.104;2023-07-02T02:21:27;4.60;;;2.40;;
79493;SDS011;68951;53.130;18.104;2023-07-02T02:23:54;5.30;;;2.60;;
79493;SDS011;68951;53.130;18.104;2023-07-02T02:26:22;4.70;;;2.10;;
79493;SDS011;68951;53.130;18.104;2023-07-02T02:28:51;4.50;;;2.10;;
79493;SDS011;68951;53.130;18.104;2023-07-02T02:31:17;5.50;;;2.40;;
79493;SDS011;68951;53.130;18.104;2023-07-02T02:33:44;5.50;;;2.10;;
79493;SDS011;68951;53.130;18.104;2023-07-02T02:36:11;5.50;;;2.00;;
79493;SDS011;68951;53.130;18.104;2023-07-02T02:38:38;6.00;;;2.70;;
79493;SDS011;68951;53.130;18.104;2023-07-02T02:41:05;5.60;;;2.30;;
79493;SDS011;68951;53.130;18.104;2023-07-02T02:43:34;6.00;;;2.60;;
79493;SDS011;68951;53.130;18.104;2023-07-02T02:46:01;4.60;;;2.10;;
79493;SDS011;68951;53.130;18.104;2023-07-02T02:48:28;5.40;;;2.40;;
79493;SDS011;68951;53.130;18.104;2023-07-02T02:50:55;7.40;;;3.20;;
79493;SDS011;68951;53.130;18.104;2023-07-02T02:53:21;6.50;;;1.90;;
79493;SDS011;68951;53.130;18.104;2023-07-02T02:55:48;6.70;;;2.70;;
79493;SDS011;68951;53.130;18.104;2023-07-02T02:58:15;6.10;;;2.60;;
79493;SDS011;68951;53.130;18.104;2023-07-02T03:00:42;5.90;;;2.50;;
79493;SDS011;68951;53.130;18.104;2023-07-02T03:03:12;5.40;;;2.60;;
79493;SDS011;68951;53.130;18.104;2023-07-02T03:05:39;5.80;;;2.30;;
79493;SDS011;68951;53.130;18.104;2023-07-02T03:08:06;3.90;;;2.00;;
79493;SDS011;68951;53.130;18.104;2023-07-02T03:10:33;6.80;;;2.10;;
79493;SDS011;68951;53.130;18.104;2023-07-02T03:13:00;7.10;;;2.70;;
79493;SDS011;68951;53.130;18.104;2023-07-02T03:15:26;4.10;;;1.70;;
79493;SDS011;68951;53.130;18.104;2023-07-02T03:17:53;5.80;;;2.80;;
79493;SDS011;68951;53.130;18.104;2023-07-02T03:20:20;7.00;;;2.70;;
79493;SDS011;68951;53.130;18.104;2023-07-02T03:22:47;5.70;;;2.00;;
79493;SDS011;68951;53.130;18.104;2023-07-02T03:25:14;5.00;;;2.10;;
79493;SDS011;68951;53.130;18.104;2023-07-02T03:27:41;5.40;;;2.70;;
79493;SDS011;68951;53.130;18.104;2023-07-02T03:30:08;4.10;;;1.40;;
79493;SDS011;68951;53.130;18.104;2023-07-02T03:32:35;6.60;;;2.50;;
79493;SDS011;68951;53.130;18.104;2023-07-02T03:35:02;4.40;;;2.00;;
79493;SDS011;68951;53.130;18.104;2023-07-02T03:37:29;4.50;;;1.60;;
79493;SDS011;68951;53.130;18.104;2023-07-02T03:39:56;4.90;;;2.50;;
79493;SDS011;68951;53.130;18.104;2023-07-02T03:42:25;4.60;;;1.90;;
79493;SDS011;68951;53.130;18.104;2023-07-02T03:44:51;6.20;;;2.30;;
79493;SDS011;68951;53.130;18.104;2023-07-02T03:47:18;5.20;;;2.40;;
79493;SDS011;68951;53.130;18.104;2023-07-02T03:49:45;6.50;;;2.90;;
79493;SDS011;68951;53.130;18.104;2023-07-02T03:52:12;4.70;;;1.60;;
79493;SDS011;68951;53.130;18.104;2023-07-02T03:54:39;5.10;;;2.00;;
79493;SDS011;68951;53.130;18.104;2023-07-02T03:57:06;4.50;;;1.70;;
79493;SDS011;68951;53.130;18.104;2023-07-02T03:59:34;5.50;;;1.70;;
79493;SDS011;68951;53.130;18.104;2023-07-02T04:02:01;5.30;;;1.90;;
79493;SDS011;68951;53.130;18.104;2023-07-02T04:04:28;4.20;;;1.80;;
79493;SDS011;68951;53.130;18.104;2023-07-02T04:06:55;6.10;;;1.80;;
79493;SDS011;68951;53.130;18.104;2023-07-02T04:09:21;4.70;;;1.70;;
79493;SDS011;68951;53.130;18.104;2023-07-02T04:11:49;8.30;;;2.10;;
79493;SDS011;68951;53.130;18.104;2023-07-02T04:14:15;3.50;;;1.20;;
79493;SDS011;68951;53.130;18.104;2023-07-02T04:16:45;4.50;;;1.80;;
79493;SDS011;68951;53.130;18.104;2023-07-02T04:19:12;5.40;;;1.80;;
79493;SDS011;68951;53.130;18.104;2023-07-02T04:21:39;6.00;;;2.10;;
79493;SDS011;68951;53.130;18.104;2023-07-02T04:24:06;3.60;;;1.30;;
79493;SDS011;68951;53.130;18.104;2023-07-02T04:26:32;4.10;;;1.40;;
79493;SDS011;68951;53.130;18.104;2023-07-02T04:28:59;4.60;;;1.50;;
79493;SDS011;68951;53.130;18.104;2023-07-02T04:31:26;4.60;;;2.00;;
79493;SDS011;68951;53.130;18.104;2023-07-02T04:33:53;3.50;;;1.50;;
79493;SDS011;68951;53.130;18.104;2023-07-02T04:36:20;4.40;;;1.10;;
79493;SDS011;68951;53.130;18.104;2023-07-02T04:38:47;4.10;;;1.20;;
79493;SDS011;68951;53.130;18.104;2023-07-02T04:41:14;4.20;;;1.70;;
79493;SDS011;68951;53.130;18.104;2023-07-02T04:43:40;4.80;;;2.00;;
79493;SDS011;68951;53.130;18.104;2023-07-02T04:46:07;4.70;;;2.00;;
79493;SDS011;68951;53.130;18.104;2023-07-02T04:48:34;4.30;;;1.80;;
79493;SDS011;68951;53.130;18.104;2023-07-02T04:51:01;3.80;;;1.30;;
79493;SDS011;68951;53.130;18.104;2023-07-02T04:53:27;4.80;;;1.60;;
79493;SDS011;68951;53.130;18.104;2023-07-02T04:55:54;5.30;;;2.10;;
79493;SDS011;68951;53.130;18.104;2023-07-02T04:58:23;4.40;;;1.60;;
79493;SDS011;68951;53.130;18.104;2023-07-02T05:00:50;3.20;;;1.10;;
79493;SDS011;68951;53.130;18.104;2023-07-02T05:03:17;4.90;;;1.60;;
79493;SDS011;68951;53.130;18.104;2023-07-02T05:05:44;5.10;;;1.40;;
79493;SDS011;68951;53.130;18.104;2023-07-02T05:08:11;4.10;;;1.60;;
79493;SDS011;68951;53.130;18.104;2023-07-02T05:10:37;4.00;;;1.60;;
79493;SDS011;68951;53.130;18.104;2023-07-02T05:13:04;5.30;;;1.10;;
79493;SDS011;68951;53.130;18.104;2023-07-02T05:15:31;4.80;;;1.40;;
79493;SDS011;68951;53.130;18.104;2023-07-02T05:17:58;3.30;;;1.10;;
79493;SDS011;68951;53.130;18.104;2023-07-02T05:20:25;4.10;;;1.20;;
79493;SDS011;68951;53.130;18.104;2023-07-02T05:22:52;5.10;;;1.30;;
79493;SDS011;68951;53.130;18.104;2023-07-02T05:25:19;3.70;;;1.20;;
79493;SDS011;68951;53.130;18.104;2023-07-02T05:27:46;3.90;;;1.30;;
79493;SDS011;68951;53.130;18.104;2023-07-02T05:30:13;3.50;;;1.30;;
79493;SDS011;68951;53.130;18.104;2023-07-02T05:32:39;4.60;;;1.50;;
79493;SDS011;68951;53.130;18.104;2023-07-02T05:35:06;3.70;;;1.30;;
79493;SDS011;68951;53.130;18.104;2023-07-02T05:37:34;3.50;;;1.30;;
79493;SDS011;68951;53.130;18.104;2023-07-02T05:40:00;2.70;;;0.80;;
79493;SDS011;68951;53.130;18.104;2023-07-02T05:42:27;3.40;;;1.30;;
79493;SDS011;68951;53.130;18.104;2023-07-02T05:44:54;3.80;;;1.30;;
79493;SDS011;68951;53.130;18.104;2023-07-02T05:47:21;4.40;;;1.30;;
79493;SDS011;68951;53.130;18.104;2023-07-02T05:49:47;3.40;;;1.00;;
79493;SDS011;68951;53.130;18.104;2023-07-02T05:52:14;3.60;;;1.20;;
79493;SDS011;68951;53.130;18.104;2023-07-02T05:54:41;4.10;;;1.30;;
79493;SDS011;68951;53.130;18.104;2023-07-02T05:57:08;3.20;;;0.90;;
79493;SDS011;68951;53.130;18.104;2023-07-02T05:59:35;4.10;;;1.00;;
79493;SDS011;68951;53.130;18.104;2023-07-02T06:02:02;3.30;;;1.00;;
79493;SDS011;68951;53.130;18.104;2023-07-02T06:04:29;3.20;;;0.90;;
79493;SDS011;68951;53.130;18.104;2023-07-02T06:06:55;3.80;;;1.40;;
79493;SDS011;68951;53.130;18.104;2023-07-02T06:09:24;2.40;;;0.60;;
79493;SDS011;68951;53.130;18.104;2023-07-02T06:11:50;4.50;;;1.20;;
79493;SDS011;68951;53.130;18.104;2023-07-02T06:14:17;2.20;;;0.50;;
79493;SDS011;68951;53.130;18.104;2023-07-02T06:16:44;3.10;;;0.90;;
79493;SDS011;68951;53.130;18.104;2023-07-02T06:19:11;3.40;;;0.90;;
79493;SDS011;68951;53.130;18.104;2023-07-02T06:21:38;3.10;;;0.80;;
79493;SDS011;68951;53.130;18.104;2023-07-02T06:24:05;2.90;;;0.90;;
79493;SDS011;68951;53.130;18.104;2023-07-02T06:26:32;2.90;;;0.90;;
79493;SDS011;68951;53.130;18.104;2023-07-02T06:28:59;3.40;;;1.00;;
79493;SDS011;68951;53.130;18.104;2023-07-02T06:31:26;3.60;;;1.10;;
79493;SDS011;68951;53.130;18.104;2023-07-02T06:33:53;3.10;;;0.90;;
79493;SDS011;68951;53.130;18.104;2023-07-02T06:36:20;3.00;;;0.90;;
79493;SDS011;68951;53.130;18.104;2023-07-02T06:38:47;2.30;;;0.60;;
79493;SDS011;68951;53.130;18.104;2023-07-02T06:41:14;3.00;;;0.90;;
79493;SDS011;68951;53.130;18.104;2023-07-02T06:43:42;4.30;;;1.00;;
79493;SDS011;68951;53.130;18.104;2023-07-02T06:46:11;3.30;;;1.20;;
79493;SDS011;68951;53.130;18.104;2023-07-02T06:48:38;3.10;;;0.80;;
79493;SDS011;68951;53.130;18.104;2023-07-02T06:51:05;4.80;;;1.30;;
79493;SDS011;68951;53.130;18.104;2023-07-02T06:53:33;3.20;;;1.20;;
79493;SDS011;68951;53.130;18.104;2023-07-02T06:56:02;4.40;;;1.10;;
79493;SDS011;68951;53.130;18.104;2023-07-02T06:58:30;3.60;;;1.10;;
79493;SDS011;68951;53.130;18.104;2023-07-02T07:00:57;4.50;;;1.50;;
79493;SDS011;68951;53.130;18.104;2023-07-02T07:03:23;4.10;;;1.10;;
79493;SDS011;68951;53.130;18.104;2023-07-02T07:05:51;3.90;;;1.20;;
79493;SDS011;68951;53.130;18.104;2023-07-02T07:08:17;4.60;;;1.20;;
79493;SDS011;68951;53.130;18.104;2023-07-02T07:10:44;4.50;;;1.30;;
79493;SDS011;68951;53.130;18.104;2023-07-02T07:13:12;4.00;;;1.00;;
79493;SDS011;68951;53.130;18.104;2023-07-02T07:15:38;3.10;;;0.90;;
79493;SDS011;68951;53.130;18.104;2023-07-02T07:18:07;4.90;;;1.30;;
79493;SDS011;68951;53.130;18.104;2023-07-02T07:20:35;3.30;;;1.00;;
79493;SDS011;68951;53.130;18.104;2023-07-02T07:23:03;3.40;;;1.10;;
79493;SDS011;68951;53.130;18.104;2023-07-02T07:25:30;3.80;;;1.20;;
79493;SDS011;68951;53.130;18.104;2023-07-02T07:27:58;4.00;;;1.20;;
79493;SDS011;68951;53.130;18.104;2023-07-02T07:30:26;4.80;;;1.90;;
79493;SDS011;68951;53.130;18.104;2023-07-02T07:32:53;3.80;;;1.30;;
79493;SDS011;68951;53.130;18.104;2023-07-02T07:35:21;4.70;;;1.50;;
79493;SDS011;68951;53.130;18.104;2023-07-02T07:37:48;4.00;;;1.50;;
79493;SDS011;68951;53.130;18.104;2023-07-02T07:40:16;4.00;;;1.60;;
79493;SDS011;68951;53.130;18.104;2023-07-02T07:42:43;3.90;;;1.50;;
79493;SDS011;68951;53.130;18.104;2023-07-02T07:45:10;4.40;;;1.50;;
79493;SDS011;68951;53.130;18.104;2023-07-02T07:47:38;3.40;;;1.40;;
79493;SDS011;68951;53.130;18.104;2023-07-02T07:50:07;3.30;;;1.50;;
79493;SDS011;68951;53.130;18.104;2023-07-02T07:52:38;5.90;;;1.50;;
79493;SDS011;68951;53.130;18.104;2023-07-02T07:55:06;3.60;;;1.30;;
79493;SDS011;68951;53.130;18.104;2023-07-02T07:57:35;4.00;;;1.40;;
79493;SDS011;68951;53.130;18.104;2023-07-02T08:00:04;3.70;;;1.40;;
79493;SDS011;68951;53.130;18.104;2023-07-02T08:02:34;3.20;;;1.20;;
79493;SDS011;68951;53.130;18.104;2023-07-02T08:05:01;5.00;;;1.20;;
79493;SDS011;68951;53.130;18.104;2023-07-02T08:07:30;4.70;;;1.30;;
79493;SDS011;68951;53.130;18.104;2023-07-02T08:09:58;3.70;;;1.50;;
79493;SDS011;68951;53.130;18.104;2023-07-02T08:12:25;3.00;;;0.90;;
79493;SDS011;68951;53.130;18.104;2023-07-02T08:14:56;3.80;;;1.50;;
79493;SDS011;68951;53.130;18.104;2023-07-02T08:17:23;5.00;;;1.50;;
79493;SDS011;68951;53.130;18.104;2023-07-02T08:19:50;3.40;;;1.00;;
79493;SDS011;68951;53.130;18.104;2023-07-02T08:22:17;5.60;;;1.90;;
79493;SDS011;68951;53.130;18.104;2023-07-02T08:24:44;3.80;;;1.40;;
79493;SDS011;68951;53.130;18.104;2023-07-02T08:27:11;5.30;;;1.40;;
79493;SDS011;68951;53.130;18.104;2023-07-02T08:29:40;6.20;;;1.20;;
79493;SDS011;68951;53.130;18.104;2023-07-02T08:32:07;3.50;;;1.00;;
79493;SDS011;68951;53.130;18.104;2023-07-02T08:34:34;5.40;;;1.20;;
79493;SDS011;68951;53.130;18.104;2023-07-02T08:37:01;4.70;;;1.20;;
79493;SDS011;68951;53.130;18.104;2023-07-02T08:39:28;3.60;;;1.10;;
79493;SDS011;68951;53.130;18.104;2023-07-02T08:41:55;4.20;;;1.50;;
79493;SDS011;68951;53.130;18.104;2023-07-02T08:44:22;5.50;;;1.70;;
79493;SDS011;68951;53.130;18.104;2023-07-02T08:46:49;2.70;;;0.80;;
79493;SDS011;68951;53.130;18.104;2023-07-02T08:49:17;3.00;;;1.00;;
79493;SDS011;68951;53.130;18.104;2023-07-02T08:51:45;3.70;;;1.40;;
79493;SDS011;68951;53.130;18.104;2023-07-02T08:54:13;4.20;;;1.80;;
79493;SDS011;68951;53.130;18.104;2023-07-02T08:56:41;3.90;;;1.20;;
79493;SDS011;68951;53.130;18.104;2023-07-02T08:59:09;6.30;;;1.80;;
79493;SDS011;68951;53.130;18.104;2023-07-02T09:01:49;3.80;;;1.60;;
79493;SDS011;68951;53.130;18.104;2023-07-02T09:04:24;4.20;;;1.50;;
79493;SDS011;68951;53.130;18.104;2023-07-02T09:07:08;6.20;;;2.40;;
79493;SDS011;68951;53.130;18.104;2023-07-02T09:09:47;7.70;;;3.70;;
79493;SDS011;68951;53.130;18.104;2023-07-02T09:12:25;9.10;;;3.90;;
79493;SDS011;68951;53.130;18.104;2023-07-02T09:14:57;6.90;;;3.00;;
79493;SDS011;68951;53.130;18.104;2023-07-02T09:17:29;4.50;;;1.50;;
79493;SDS011;68951;53.130;18.104;2023-07-02T09:19:58;6.90;;;2.90;;
79493;SDS011;68951;53.130;18.104;2023-07-02T09:22:27;7.60;;;2.60;;
79493;SDS011;68951;53.130;18.104;2023-07-02T09:24:55;8.80;;;2.70;;
79493;SDS011;68951;53.130;18.104;2023-07-02T09:27:38;8.00;;;2.30;;
79493;SDS011;68951;53.130;18.104;2023-07-02T09:30:11;4.50;;;1.70;;
79493;SDS011;68951;53.130;18.104;2023-07-02T09:32:41;5.80;;;1.70;;
79493;SDS011;68951;53.130;18.104;2023-07-02T09:35:10;4.70;;;1.80;;
79493;SDS011;68951;53.130;18.104;2023-07-02T09:37:38;6.20;;;2.60;;
79493;SDS011;68951;53.130;18.104;2023-07-02T09:40:06;4.60;;;2.00;;
79493;SDS011;68951;53.130;18.104;2023-07-02T09:42:38;7.60;;;2.50;;
79493;SDS011;68951;53.130;18.104;2023-07-02T09:45:08;4.80;;;2.10;;
79493;SDS011;68951;53.130;18.104;2023-07-02T09:47:42;4.60;;;2.10;;
79493;SDS011;68951;53.130;18.104;2023-07-02T09:50:14;4.40;;;1.90;;
79493;SDS011;68951;53.130;18.104;2023-07-02T09:52:44;5.90;;;2.20;;
79493;SDS011;68951;53.130;18.104;2023-07-02T09:55:14;4.70;;;2.20;;
79493;SDS011;68951;53.130;18.104;2023-07-02T09:57:43;6.90;;;2.40;;
79493;SDS011;68951;53.130;18.104;2023-07-02T10:00:12;6.20;;;2.40;;
79493;SDS011;68951;53.130;18.104;2023-07-02T10:02:40;8.00;;;3.20;;
79493;SDS011;68951;53.130;18.104;2023-07-02T10:05:07;5.80;;;3.10;;
79493;SDS011;68951;53.130;18.104;2023-07-02T10:07:34;7.60;;;2.80;;
79493;SDS011;68951;53.130;18.104;2023-07-02T10:10:01;7.20;;;2.50;;
79493;SDS011;68951;53.130;18.104;2023-07-02T10:12:29;5.10;;;2.00;;
79493;SDS011;68951;53.130;18.104;2023-07-02T10:14:58;5.30;;;1.90;;
79493;SDS011;68951;53.130;18.104;2023-07-02T10:17:30;5.10;;;2.10;;
79493;SDS011;68951;53.130;18.104;2023-07-02T10:20:01;5.00;;;2.00;;
79493;SDS011;68951;53.130;18.104;2023-07-02T10:22:47;3.80;;;1.40;;
79493;SDS011;68951;53.130;18.104;2023-07-02T10:25:27;4.90;;;1.90;;
79493;SDS011;68951;53.130;18.104;2023-07-02T10:27:56;5.00;;;2.10;;
79493;SDS011;68951;53.130;18.104;2023-07-02T10:30:49;5.10;;;1.40;;
79493;SDS011;68951;53.130;18.104;2023-07-02T10:33:19;4.30;;;1.50;;
79493;SDS011;68951;53.130;18.104;2023-07-02T10:35:49;3.90;;;1.40;;
79493;SDS011;68951;53.130;18.104;2023-07-02T10:38:20;4.30;;;1.70;;
79493;SDS011;68951;53.130;18.104;2023-07-02T10:40:59;4.10;;;2.00;;
79493;SDS011;68951;53.130;18.104;2023-07-02T10:43:28;3.70;;;1.50;;
79493;SDS011;68951;53.130;18.104;2023-07-02T10:45:56;5.20;;;1.60;;
79493;SDS011;68951;53.130;18.104;2023-07-02T10:48:23;5.40;;;1.60;;
79493;SDS011;68951;53.130;18.104;2023-07-02T10:50:50;6.60;;;1.90;;
79493;SDS011;68951;53.130;18.104;2023-07-02T10:53:18;3.50;;;1.40;;
79493;SDS011;68951;53.130;18.104;2023-07-02T10:55:52;3.90;;;1.90;;
79493;SDS011;68951;53.130;18.104;2023-07-02T10:58:21;4.90;;;1.90;;
79493;SDS011;68951;53.130;18.104;2023-07-02T11:00:50;4.00;;;1.70;;
79493;SDS011;68951;53.130;18.104;2023-07-02T11:03:19;4.30;;;1.70;;
79493;SDS011;68951;53.130;18.104;2023-07-02T11:05:50;6.00;;;1.80;;
79493;SDS011;68951;53.130;18.104;2023-07-02T11:08:18;5.50;;;1.90;;
79493;SDS011;68951;53.130;18.104;2023-07-02T11:10:47;5.00;;;1.50;;
79493;SDS011;68951;53.130;18.104;2023-07-02T11:13:19;3.70;;;1.40;;
79493;SDS011;68951;53.130;18.104;2023-07-02T11:15:47;5.00;;;1.80;;
79493;SDS011;68951;53.130;18.104;2023-07-02T11:18:18;3.90;;;1.40;;
79493;SDS011;68951;53.130;18.104;2023-07-02T11:20:49;4.20;;;1.80;;
79493;SDS011;68951;53.130;18.104;2023-07-02T11:23:25;3.30;;;1.20;;
79493;SDS011;68951;53.130;18.104;2023-07-02T11:26:03;5.20;;;1.80;;
79493;SDS011;68951;53.130;18.104;2023-07-02T11:28:31;5.50;;;1.40;;
79493;SDS011;68951;53.130;18.104;2023-07-02T11:31:01;4.20;;;1.50;;
79493;SDS011;68951;53.130;18.104;2023-07-02T11:33:35;3.80;;;1.50;;
79493;SDS011;68951;53.130;18.104;2023-07-02T11:36:04;4.90;;;1.90;;
79493;SDS011;68951;53.130;18.104;2023-07-02T11:38:46;3.50;;;1.40;;
79493;SDS011;68951;53.130;18.104;2023-07-02T11:41:14;4.20;;;1.70;;
79493;SDS011;68951;53.130;18.104;2023-07-02T11:43:41;4.30;;;2.00;;
79493;SDS011;68951;53.130;18.104;2023-07-02T11:46:08;4.50;;;1.80;;
79493;SDS011;68951;53.130;18.104;2023-07-02T11:48:35;4.20;;;1.50;;
79493;SDS011;68951;53.130;18.104;2023-07-02T11:51:02;4.40;;;1.70;;
79493;SDS011;68951;53.130;18.104;2023-07-02T11:53:29;4.50;;;1.70;;
79493;SDS011;68951;53.130;18.104;2023-07-02T11:55:56;5.50;;;2.00;;
79493;SDS011;68951;53.130;18.104;2023-07-02T11:58:23;6.20;;;2.40;;
79493;SDS011;68951;53.130;18.104;2023-07-02T12:00:50;7.80;;;1.80;;
79493;SDS011;68951;53.130;18.104;2023-07-02T12:03:17;4.00;;;1.70;;
79493;SDS011;68951;53.130;18.104;2023-07-02T12:05:44;4.70;;;2.20;;
79493;SDS011;68951;53.130;18.104;2023-07-02T12:08:12;5.50;;;1.90;;
79493;SDS011;68951;53.130;18.104;2023-07-02T12:10:40;4.10;;;1.90;;
79493;SDS011;68951;53.130;18.104;2023-07-02T12:13:07;6.10;;;1.80;;
79493;SDS011;68951;53.130;18.104;2023-07-02T12:15:34;4.30;;;1.80;;
79493;SDS011;68951;53.130;18.104;2023-07-02T12:18:01;3.90;;;1.80;;
79493;SDS011;68951;53.130;18.104;2023-07-02T12:20:28;4.20;;;1.80;;
79493;SDS011;68951;53.130;18.104;2023-07-02T12:22:55;4.40;;;1.70;;
79493;SDS011;68951;53.130;18.104;2023-07-02T12:25:23;4.70;;;2.00;;
79493;SDS011;68951;53.130;18.104;2023-07-02T12:27:50;5.40;;;2.50;;
79493;SDS011;68951;53.130;18.104;2023-07-02T12:30:17;4.50;;;1.60;;
79493;SDS011;68951;53.130;18.104;2023-07-02T12:32:45;4.90;;;1.70;;
79493;SDS011;68951;53.130;18.104;2023-07-02T12:35:12;4.00;;;1.80;;
79493;SDS011;68951;53.130;18.104;2023-07-02T12:37:50;5.20;;;2.00;;
79493;SDS011;68951;53.130;18.104;2023-07-02T12:40:18;3.80;;;1.60;;
79493;SDS011;68951;53.130;18.104;2023-07-02T12:42:47;4.20;;;1.90;;
79493;SDS011;68951;53.130;18.104;2023-07-02T12:45:14;4.40;;;2.00;;
79493;SDS011;68951;53.130;18.104;2023-07-02T12:47:44;4.00;;;1.70;;
79493;SDS011;68951;53.130;18.104;2023-07-02T12:50:11;4.90;;;2.30;;
79493;SDS011;68951;53.130;18.104;2023-07-02T12:52:38;5.60;;;1.60;;
79493;SDS011;68951;53.130;18.104;2023-07-02T12:55:05;5.60;;;2.00;;
79493;SDS011;68951;53.130;18.104;2023-07-02T12:57:32;4.80;;;2.10;;
79493;SDS011;68951;53.130;18.104;2023-07-02T12:59:59;5.30;;;1.80;;
79493;SDS011;68951;53.130;18.104;2023-07-02T13:02:26;3.50;;;1.30;;
79493;SDS011;68951;53.130;18.104;2023-07-02T13:04:52;4.80;;;1.50;;
79493;SDS011;68951;53.130;18.104;2023-07-02T13:07:19;3.80;;;1.40;;
79493;SDS011;68951;53.130;18.104;2023-07-02T13:09:46;3.80;;;1.50;;
79493;SDS011;68951;53.130;18.104;2023-07-02T13:12:13;6.40;;;2.10;;
79493;SDS011;68951;53.130;18.104;2023-07-02T13:14:40;4.80;;;1.90;;
79493;SDS011;68951;53.130;18.104;2023-07-02T13:17:09;5.50;;;2.10;;
79493;SDS011;68951;53.130;18.104;2023-07-02T13:19:35;5.30;;;1.90;;
79493;SDS011;68951;53.130;18.104;2023-07-02T13:22:02;6.70;;;1.80;;
79493;SDS011;68951;53.130;18.104;2023-07-02T13:24:33;5.40;;;1.80;;
79493;SDS011;68951;53.130;18.104;2023-07-02T13:27:08;4.60;;;1.90;;
79493;SDS011;68951;53.130;18.104;2023-07-02T13:29:39;5.70;;;2.30;;
79493;SDS011;68951;53.130;18.104;2023-07-02T13:32:06;4.90;;;1.80;;
79493;SDS011;68951;53.130;18.104;2023-07-02T13:34:33;4.60;;;1.90;;
79493;SDS011;68951;53.130;18.104;2023-07-02T13:37:00;4.90;;;1.80;;
79493;SDS011;68951;53.130;18.104;2023-07-02T13:39:29;5.00;;;2.00;;
79493;SDS011;68951;53.130;18.104;2023-07-02T13:41:57;4.30;;;1.60;;
79493;SDS011;68951;53.130;18.104;2023-07-02T13:44:24;7.60;;;2.20;;
79493;SDS011;68951;53.130;18.104;2023-07-02T13:46:50;5.30;;;1.60;;
79493;SDS011;68951;53.130;18.104;2023-07-02T13:49:17;5.00;;;2.10;;
79493;SDS011;68951;53.130;18.104;2023-07-02T13:51:44;4.30;;;1.60;;
79493;SDS011;68951;53.130;18.104;2023-07-02T13:54:12;5.00;;;1.90;;
79493;SDS011;68951;53.130;18.104;2023-07-02T13:56:40;5.00;;;2.00;;
79493;SDS011;68951;53.130;18.104;2023-07-02T13:59:07;5.60;;;2.10;;
79493;SDS011;68951;53.130;18.104;2023-07-02T14:01:34;5.40;;;2.10;;
79493;SDS011;68951;53.130;18.104;2023-07-02T14:04:03;5.70;;;2.50;;
79493;SDS011;68951;53.130;18.104;2023-07-02T14:06:31;6.20;;;2.20;;
79493;SDS011;68951;53.130;18.104;2023-07-02T14:08:58;4.70;;;1.70;;
79493;SDS011;68951;53.130;18.104;2023-07-02T14:11:25;5.70;;;2.00;;
79493;SDS011;68951;53.130;18.104;2023-07-02T14:13:54;5.20;;;2.20;;
79493;SDS011;68951;53.130;18.104;2023-07-02T14:16:22;5.20;;;2.10;;
79493;SDS011;68951;53.130;18.104;2023-07-02T14:18:50;6.20;;;1.80;;
79493;SDS011;68951;53.130;18.104;2023-07-02T14:21:18;5.10;;;2.10;;
79493;SDS011;68951;53.130;18.104;2023-07-02T14:23:46;6.00;;;2.20;;
79493;SDS011;68951;53.130;18.104;2023-07-02T14:26:12;7.40;;;2.80;;
79493;SDS011;68951;53.130;18.104;2023-07-02T14:28:39;4.90;;;1.90;;
79493;SDS011;68951;53.130;18.104;2023-07-02T14:31:07;4.50;;;1.90;;
79493;SDS011;68951;53.130;18.104;2023-07-02T14:33:35;4.80;;;2.30;;
79493;SDS011;68951;53.130;18.104;2023-07-02T14:36:04;6.80;;;2.20;;
79493;SDS011;68951;53.130;18.104;2023-07-02T14:38:33;5.70;;;2.50;;
79493;SDS011;68951;53.130;18.104;2023-07-02T14:41:00;5.90;;;2.80;;